RJFFRJFM

Guest
Details From RJFF - FUKUOKA
To RJFM - MIYAZAKI
Flight Number -
Tags generated
Created
Modified
Stats Distance 114 nm / 212 km
Max Altitude 13,000 ft / 3,962 m
Waypoints 3
Social Downloads 0
Likes 0
Share VATSIM

Download

Looking for another format? Having issues loading an existing format? Contact us
Advertisement - Login to hide

Notes

Basic altitude profile: - Ascent Rate: 2500ft/min - Ascent Speed: 250kts - Cruise Altitude: 35000ft - Cruise Speed: 420kts - Descent Rate: 1500ft/min - Descent Speed: 250kts Options: - Use NATs: yes - Use PACOTS: yes - Use low airways: yes - Use high airways: yes

Route

RJFF TUJUN RJFM

ID Type Via Altitude Latitude Longitude Leg Dist Tot Dist Heading (true) Name
O RJFF APT - 0 ft / 0 m 33.58594˚ 130.45069˚ - 0 nm - FUKUOKA
TUJUN FIX - 13,000 ft / 3,962 m 32.86618˚ 130.91152˚ 49 nm 49 nm 152° / 152° -
O RJFM APT - 0 ft / 0 m 31.87713˚ 131.44845˚ 65 nm 114 nm 155° / 156° MIYAZAKI

Altitude Profile

Advertisement - Login to hide

RJFF

Details ICAO RJFF (FUK)
Name FUKUOKA
Region Japan
Timezone Asia/Tokyo (UTC+9.0)
Stats Elevation 32 ft / 10 m (AMSL)
Location 33.585943° 130.450686°
Runways 1
Magnetic Variation 7.482° W

METAR

RJFF 260300Z 08004KT 030V150 9999 FEW025 SCT/// 23/17 Q1008 RMK 1CU025 A2977

Decode

TAF

TAF RJFF 252306Z 2600/2706 07009KT 9999 FEW030 SCT040 BECMG 2612/2615 34003KT BECMG 2618/2621 14007KT BECMG 2703/2706 31010KT

Decode

Departure Runways

ID Width Length Bearing (true) Bearing (mag) Surface Threshold Offset Overrun Length
16 197 ft / 60 m 9,217 ft / 2,810 m 150.35° 157.83° Asphalt 0 ft / 0 m 719 ft / 219 m
34 197 ft / 60 m 9,217 ft / 2,810 m 330.35° 337.83° Asphalt 0 ft / 0 m 801 ft / 244 m

RJFM

Details ICAO RJFM (KMI)
Name MIYAZAKI
Region Japan
Timezone Asia/Tokyo (UTC+9.0)
Stats Elevation 20 ft / 6 m (AMSL)
Location 31.877128° 131.448447°
Runways 1
Magnetic Variation 6.967° W

METAR

RJFM 260300Z 02011KT 4000 SHRA BR FEW004 SCT006 BKN007 17/17 Q1009

Decode

TAF

TAF RJFM 252314Z 2600/2706 35007KT 7000 -SHRA FEW010 SCT015 BKN020 TEMPO 2600/2606 3000 SHRA BR FEW003 BKN007 BKN010 BECMG 2601/2603 06015KT TEMPO 2606/2610 4000 -SHRA BR FEW004 BKN009 BKN012 BECMG 2615/2618 31005KT BECMG 2621/2700 05010KT

Decode

Destination Runways

ID Width Length Bearing (true) Bearing (mag) Surface Threshold Offset Overrun Length
09 150 ft / 46 m 8,187 ft / 2,496 m 85.16° 92.13° Asphalt 0 ft / 0 m 200 ft / 61 m
27 150 ft / 46 m 8,187 ft / 2,496 m 265.18° 272.15° Asphalt 0 ft / 0 m 200 ft / 61 m

Approach Navaids

Runway Type Ident Frequency Range Bearing (true) Bearing (mag) Slope Elevation
27 Localiser IMZ 108.90 MHz 18 nm / 33 km 265.16° 272.13° - 54 ft / 16 m (AMSL)
27 Glidescope IMZ 108.90 MHz 10 nm / 19 km 265.17° 272.14° 3.00° 54 ft / 16 m (AMSL)
27 DME IMZ 108.90 MHz 18 nm / 33 km - - - 34 ft / 10 m (AMSL)

Popular Alternatives